Suederoog — ZDHC8 — position and weather

sailwx.info

Track history (hours):
 
Tides and Currents Weather Stations Pressure Air Temp Water Temp Dewpoint Dewpoint Depression Visibility Wind Speed Wind Dir Waves Ship Positions

Suederoog

Last reported at 2016-May-24 22:33 UTC. Time now 2016-May-24 23:32 UTC.
Position N 55°44' E 015°43'.

Length 161 m; draft 8.6 m.

Type: Ship (hazmat cat A). MMSI: 236300000.

Date/timePositionNaut miles runAvg speedWind from/ knotsBaromVisibWave heightAir tempDewpointWater temp
2016-May-24 22:33N 55°44' E 015°43'1110.8
2016-May-24 21:32N 55°38' E 015°26'1110.8
2016-May-24 20:33N 55°33' E 015°10'1110.9
2016-May-24 19:33N 55°28' E 014°53'1110.9
2016-May-24 18:33N 55°22' E 014°37'1111.2
2016-May-24 17:33N 55°13' E 014°24'1111.2
2016-May-24 16:33N 55°05' E 014°12'1111.0
2016-May-24 15:33N 54°59' E 013°56'1111.0
2016-May-24 14:33N 54°55' E 013°38'1111.0
2016-May-24 13:33N 54°52' E 013°20'3411.1
2016-May-24 10:29N 54°39' E 012°25'1010.6
2016-May-24 09:33N 54°31' E 012°14'10 9.9
2016-May-24 08:33N 54°24' E 012°02'1111.0
2016-May-24 07:33N 54°26' E 011°44'1111.1
2016-May-24 06:33N 54°31' E 011°26'1111.5
2016-May-24 05:33N 54°35' E 011°08'1211.9
2016-May-24 04:33N 54°34' E 010°48'1211.6
2016-May-24 03:33N 54°32' E 010°28'1211.7
2016-May-24 02:33N 54°25' E 010°13'4 4.3
2016-May-24 01:33N 54°22' E 010°07'7 6.9
2016-May-24 00:33N 54°21' E 009°55'7 7.1
2016-May-23 23:33N 54°20' E 009°43'7 6.8
2016-May-23 22:33N 54°14' E 009°36'8 7.8
2016-May-23 21:33N 54°10' E 009°25'6 6.0
2016-May-23 20:34N 54°05' E 009°19'6 5.6
2016-May-23 19:34N 53°59' E 009°17'7 7.4
2016-May-23 18:34N 53°54' E 009°09'0 0.3
2016-May-23 17:33N 53°54' E 009°09'2 1.6
2016-May-23 16:33N 53°53' E 009°06'3 3.0
2016-May-23 15:34N 53°53' E 009°11'5 4.9
2016-May-23 14:34N 53°51' E 009°19'1414.0
2016-May-23 13:33N 53°39' E 009°31'1211.7
2016-May-23 12:33N 53°33' E 009°48'4 4.0
2016-May-23 11:32N 53°32' E 009°55'0 0.0
2016-May-23 10:32N 53°32' E 009°55'0 0.0
2016-May-23 09:32N 53°32' E 009°55'0 0.0
2016-May-23 08:32N 53°32' E 009°55'0 0.0
2016-May-23 07:32N 53°32' E 009°55'0 0.0
2016-May-23 06:32N 53°32' E 009°55'0 0.0
2016-May-23 05:32N 53°32' E 009°55'0 0.1
2016-May-23 04:33N 53°32' E 009°55'1 1.3
2016-May-23 03:32N 53°32' E 009°57'0 0.0
2016-May-23 02:32N 53°32' E 009°57'0 0.0
2016-May-23 01:32N 53°32' E 009°57'0 0.0
2016-May-23 00:32N 53°32' E 009°57'0 0.0
2016-May-22 23:32N 53°32' E 009°57'0 0.0
2016-May-22 22:32N 53°32' E 009°57'0 0.0
2016-May-22 21:32N 53°32' E 009°57'0 0.0
2016-May-22 20:32N 53°32' E 009°57'0 0.0
2016-May-22 19:32N 53°32' E 009°57'0 0.0
2016-May-22 18:32N 53°32' E 009°57'0 0.0
2016-May-22 17:32N 53°32' E 009°57'0 0.0
2016-May-22 16:32N 53°32' E 009°57'0 0.0
2016-May-22 15:32N 53°32' E 009°57'0 0.0
2016-May-22 14:32N 53°32' E 009°57'0 0.0
2016-May-22 13:32N 53°32' E 009°57'0 0.0
2016-May-22 12:32N 53°32' E 009°57'0 0.0
2016-May-22 11:32N 53°32' E 009°57'0 0.0
2016-May-22 10:32N 53°32' E 009°57'1 1.2
2016-May-22 09:33N 53°32' E 009°55'9 9.1
2016-May-22 08:33N 53°34' E 009°40'1313.0
2016-May-22 07:33N 53°44' E 009°26'1312.8
2016-May-22 06:34N 53°53' E 009°10'1 1.2
2016-May-22 05:34N 53°54' E 009°09'3 2.8
2016-May-22 04:33N 53°56' E 009°12'7 6.6
2016-May-22 03:33N 54°01' E 009°18'7 7.2
2016-May-22 02:33N 54°08' E 009°20'8 8.2
2016-May-22 01:34N 54°12' E 009°33'10 5.1
2016-May-21 23:33N 54°20' E 009°44'5 5.1
2016-May-21 22:29N 54°21' E 009°53'4 4.2
2016-May-21 21:34N 54°21' E 009°59'5 5.4
2016-May-21 20:34N 54°22' E 010°08'3 2.7
2016-May-21 19:33N 54°24' E 010°12'1311.7
2016-May-21 18:27N 54°32' E 010°28'1111.8
2016-May-21 17:33N 54°35' E 010°46'1211.8
2016-May-21 16:33N 54°36' E 011°06'1212.2
2016-May-21 15:33N 54°32' E 011°26'1212.4
2016-May-21 14:33N 54°27' E 011°45'1312.7
2016-May-21 13:33N 54°26' E 012°07'1111.1
2016-May-21 12:33N 54°36' E 012°16'1312.3
2016-May-21 11:32N 54°43' E 012°34'4812.0
2016-May-21 07:33N 55°01' E 013°51'1111.4
2016-May-21 06:33N 55°07' E 014°08'1211.8
2016-May-21 05:33N 55°16' E 014°21'1212.0
2016-May-21 04:33N 55°26' E 014°34'1212.0
2016-May-21 03:33N 55°32' E 014°52'1212.2
2016-May-21 02:33N 55°38' E 015°11'1812.0
2016-May-21 01:06N 55°47' E 015°38'33912.7
2016-May-19 22:31N 59°38' E 023°21'1212.2
2016-May-19 21:32N 59°41' E 023°44'1212.1
2016-May-19 20:33N 59°45' E 024°07'1211.9
2016-May-19 19:33N 59°48' E 024°29'4811.4
2016-May-19 15:20N 59°60' E 026°02'911.3
2016-May-19 14:32N 60°05' E 026°17'1111.3
2016-May-19 13:33N 60°15' E 026°27'1514.7
2016-May-19 12:33N 60°24' E 026°51'3 2.7
2016-May-19 11:33N 60°25' E 026°55'0 0.0
2016-May-19 10:33N 60°25' E 026°55'0 0.0
2016-May-19 09:33N 60°25' E 026°55'0 0.0
2016-May-19 08:33N 60°25' E 026°55'0 0.0
2016-May-19 07:33N 60°25' E 026°55'0 0.0
2016-May-19 06:33N 60°25' E 026°55'0 0.0
2016-May-19 05:33N 60°25' E 026°55'0 0.0
2016-May-19 04:33N 60°25' E 026°55'0 0.0
2016-May-19 03:33N 60°25' E 026°55'0 0.0
2016-May-19 02:33N 60°25' E 026°55'0 0.0
2016-May-19 01:33N 60°25' E 026°55'0 0.0
2016-May-19 00:33N 60°25' E 026°55'0 0.0
2016-May-18 23:33N 60°25' E 026°55'0 0.0
2016-May-18 22:33N 60°25' E 026°55'0 0.0
2016-May-18 21:33N 60°25' E 026°55'0 0.0
2016-May-18 20:33N 60°25' E 026°55'0 0.0
2016-May-18 19:33N 60°25' E 026°55'0 0.0
2016-May-18 18:33N 60°25' E 026°55'0 0.0
2016-May-18 17:33N 60°25' E 026°55'0 0.0
2016-May-18 16:33N 60°25' E 026°55'0 0.0
2016-May-18 15:33N 60°25' E 026°55'0 0.0
2016-May-18 14:33N 60°25' E 026°55'0 0.0
2016-May-18 13:33N 60°25' E 026°55'0 0.0
2016-May-18 12:33N 60°25' E 026°55'0 0.0
2016-May-18 11:33N 60°25' E 026°55'0 0.0
2016-May-18 10:33N 60°25' E 026°55'7 7.0
2016-May-18 09:33N 60°22' E 026°42'1414.2
2016-May-18 08:33N 60°12' E 026°23'1110.9
2016-May-18 07:32N 60°04' E 026°38'1111.5
2016-May-18 06:33N 59°59' E 026°59'1111.3
2016-May-18 05:33N 60°04' E 027°20'1211.6
2016-May-18 04:33N 60°10' E 027°40'1110.9
2016-May-18 03:33N 60°10' E 028°01'1211.5
2016-May-18 02:33N 60°06' E 028°23'1111.3
2016-May-18 01:33N 60°03' E 028°45'1211.7
2016-May-18 00:33N 60°02' E 029°08'1110.8
2016-May-17 23:29N 60°01' E 029°31'1111.6
2016-May-17 22:33N 59°57' E 029°51'1010.4
2016-May-17 21:33N 59°53' E 030°10'2 1.7
2016-May-17 20:33N 59°54' E 030°14'0 0.0
2016-May-17 19:32N 59°54' E 030°14'0 0.0
2016-May-17 18:32N 59°54' E 030°14'0 0.0
2016-May-17 17:29N 59°54' E 030°14'0 0.0
2016-May-17 16:29N 59°54' E 030°14'1 1.5
2016-May-17 15:33N 59°53' E 030°11'1 1.1
2016-May-17 14:31N 59°52' E 030°12'0 0.0
2016-May-17 13:31N 59°52' E 030°12'0 0.0
2016-May-17 12:31N 59°52' E 030°12'0 0.0
2016-May-17 11:31N 59°52' E 030°12'0 0.0
2016-May-17 10:31N 59°52' E 030°12'0 0.0
2016-May-17 09:28N 59°52' E 030°12'0 0.0
2016-May-17 08:31N 59°52' E 030°12'0 0.0
2016-May-17 07:31N 59°52' E 030°12'0 0.0
2016-May-17 06:31N 59°52' E 030°12'0 0.0
2016-May-17 05:28N 59°52' E 030°12'0 0.0
2016-May-17 04:31N 59°52' E 030°12'0 0.0
2016-May-17 03:31N 59°52' E 030°12'0 0.3
2016-May-17 02:33N 59°53' E 030°12'8 7.8
2016-May-17 01:33N 59°56' E 029°58'1212.0
2016-May-17 00:33N 60°01' E 029°36'29 3.2
2016-May-16 15:22N 60°02' E 028°37'911.0
2016-May-16 14:33N 60°05' E 028°20'1111.4
2016-May-16 13:33N 60°09' E 027°59'1110.8
2016-May-16 12:33N 60°08' E 027°37'1311.9
2016-May-16 11:29N 60°02' E 027°15'1011.2
2016-May-16 10:33N 59°59' E 026°55'1211.7
2016-May-16 09:33N 59°59' E 026°32'6311.9
2016-May-16 04:16N 59°44' E 024°30'911.9
2016-May-16 03:32N 59°42' E 024°13'1211.8
2016-May-16 02:33N 59°38' E 023°51'1212.0
2016-May-16 01:32N 59°34' E 023°28'1312.3
2016-May-16 00:28N 59°30' E 023°04'  
Track history (hours):
 
Tides and Currents Weather Stations Pressure Air Temp Water Temp Dewpoint Dewpoint Depression Visibility Wind Speed Wind Dir Waves Ship Positions

Suederoog

Last reported at 2016-May-24 22:33 UTC. Time now 2016-May-24 23:32 UTC.
Position N 55°44' E 015°43'.

Length 161 m; draft 8.6 m.

Type: Ship (hazmat cat A). MMSI: 236300000.

Date/timePositionNaut miles runAvg speedWind from/ knotsBaromVisibWave heightAir tempDewpointWater temp
2016-May-24 22:33N 55°44' E 015°43'1110.8
2016-May-24 21:32N 55°38' E 015°26'1110.8
2016-May-24 20:33N 55°33' E 015°10'1110.9
2016-May-24 19:33N 55°28' E 014°53'1110.9
2016-May-24 18:33N 55°22' E 014°37'1111.2
2016-May-24 17:33N 55°13' E 014°24'1111.2
2016-May-24 16:33N 55°05' E 014°12'1111.0
2016-May-24 15:33N 54°59' E 013°56'1111.0
2016-May-24 14:33N 54°55' E 013°38'1111.0
2016-May-24 13:33N 54°52' E 013°20'3411.1
2016-May-24 10:29N 54°39' E 012°25'1010.6
2016-May-24 09:33N 54°31' E 012°14'10 9.9
2016-May-24 08:33N 54°24' E 012°02'1111.0
2016-May-24 07:33N 54°26' E 011°44'1111.1
2016-May-24 06:33N 54°31' E 011°26'1111.5
2016-May-24 05:33N 54°35' E 011°08'1211.9
2016-May-24 04:33N 54°34' E 010°48'1211.6
2016-May-24 03:33N 54°32' E 010°28'1211.7
2016-May-24 02:33N 54°25' E 010°13'4 4.3
2016-May-24 01:33N 54°22' E 010°07'7 6.9
2016-May-24 00:33N 54°21' E 009°55'7 7.1
2016-May-23 23:33N 54°20' E 009°43'7 6.8
2016-May-23 22:33N 54°14' E 009°36'8 7.8
2016-May-23 21:33N 54°10' E 009°25'6 6.0
2016-May-23 20:34N 54°05' E 009°19'6 5.6
2016-May-23 19:34N 53°59' E 009°17'7 7.4
2016-May-23 18:34N 53°54' E 009°09'0 0.3
2016-May-23 17:33N 53°54' E 009°09'2 1.6
2016-May-23 16:33N 53°53' E 009°06'3 3.0
2016-May-23 15:34N 53°53' E 009°11'5 4.9
2016-May-23 14:34N 53°51' E 009°19'1414.0
2016-May-23 13:33N 53°39' E 009°31'1211.7
2016-May-23 12:33N 53°33' E 009°48'4 4.0
2016-May-23 11:32N 53°32' E 009°55'0 0.0
2016-May-23 10:32N 53°32' E 009°55'0 0.0
2016-May-23 09:32N 53°32' E 009°55'0 0.0
2016-May-23 08:32N 53°32' E 009°55'0 0.0
2016-May-23 07:32N 53°32' E 009°55'0 0.0
2016-May-23 06:32N 53°32' E 009°55'0 0.0
2016-May-23 05:32N 53°32' E 009°55'0 0.1
2016-May-23 04:33N 53°32' E 009°55'1 1.3
2016-May-23 03:32N 53°32' E 009°57'0 0.0
2016-May-23 02:32N 53°32' E 009°57'0 0.0
2016-May-23 01:32N 53°32' E 009°57'0 0.0
2016-May-23 00:32N 53°32' E 009°57'0 0.0
2016-May-22 23:32N 53°32' E 009°57'0 0.0
2016-May-22 22:32N 53°32' E 009°57'0 0.0
2016-May-22 21:32N 53°32' E 009°57'0 0.0
2016-May-22 20:32N 53°32' E 009°57'0 0.0
2016-May-22 19:32N 53°32' E 009°57'0 0.0
2016-May-22 18:32N 53°32' E 009°57'0 0.0
2016-May-22 17:32N 53°32' E 009°57'0 0.0
2016-May-22 16:32N 53°32' E 009°57'0 0.0
2016-May-22 15:32N 53°32' E 009°57'0 0.0
2016-May-22 14:32N 53°32' E 009°57'0 0.0
2016-May-22 13:32N 53°32' E 009°57'0 0.0
2016-May-22 12:32N 53°32' E 009°57'0 0.0
2016-May-22 11:32N 53°32' E 009°57'0 0.0
2016-May-22 10:32N 53°32' E 009°57'1 1.2
2016-May-22 09:33N 53°32' E 009°55'9 9.1
2016-May-22 08:33N 53°34' E 009°40'1313.0
2016-May-22 07:33N 53°44' E 009°26'1312.8
2016-May-22 06:34N 53°53' E 009°10'1 1.2
2016-May-22 05:34N 53°54' E 009°09'3 2.8
2016-May-22 04:33N 53°56' E 009°12'7 6.6
2016-May-22 03:33N 54°01' E 009°18'7 7.2
2016-May-22 02:33N 54°08' E 009°20'8 8.2
2016-May-22 01:34N 54°12' E 009°33'10 5.1
2016-May-21 23:33N 54°20' E 009°44'5 5.1
2016-May-21 22:29N 54°21' E 009°53'4 4.2
2016-May-21 21:34N 54°21' E 009°59'5 5.4
2016-May-21 20:34N 54°22' E 010°08'3 2.7
2016-May-21 19:33N 54°24' E 010°12'1311.7
2016-May-21 18:27N 54°32' E 010°28'1111.8
2016-May-21 17:33N 54°35' E 010°46'1211.8
2016-May-21 16:33N 54°36' E 011°06'1212.2
2016-May-21 15:33N 54°32' E 011°26'1212.4
2016-May-21 14:33N 54°27' E 011°45'1312.7
2016-May-21 13:33N 54°26' E 012°07'1111.1
2016-May-21 12:33N 54°36' E 012°16'1312.3
2016-May-21 11:32N 54°43' E 012°34'4812.0
2016-May-21 07:33N 55°01' E 013°51'1111.4
2016-May-21 06:33N 55°07' E 014°08'1211.8
2016-May-21 05:33N 55°16' E 014°21'1212.0
2016-May-21 04:33N 55°26' E 014°34'1212.0
2016-May-21 03:33N 55°32' E 014°52'1212.2
2016-May-21 02:33N 55°38' E 015°11'1812.0
2016-May-21 01:06N 55°47' E 015°38'33912.7
2016-May-19 22:31N 59°38' E 023°21'1212.2
2016-May-19 21:32N 59°41' E 023°44'1212.1
2016-May-19 20:33N 59°45' E 024°07'1211.9
2016-May-19 19:33N 59°48' E 024°29'4811.4
2016-May-19 15:20N 59°60' E 026°02'911.3
2016-May-19 14:32N 60°05' E 026°17'1111.3
2016-May-19 13:33N 60°15' E 026°27'1514.7
2016-May-19 12:33N 60°24' E 026°51'3 2.7
2016-May-19 11:33N 60°25' E 026°55'0 0.0
2016-May-19 10:33N 60°25' E 026°55'0 0.0
2016-May-19 09:33N 60°25' E 026°55'0 0.0
2016-May-19 08:33N 60°25' E 026°55'0 0.0
2016-May-19 07:33N 60°25' E 026°55'0 0.0
2016-May-19 06:33N 60°25' E 026°55'0 0.0
2016-May-19 05:33N 60°25' E 026°55'0 0.0
2016-May-19 04:33N 60°25' E 026°55'0 0.0
2016-May-19 03:33N 60°25' E 026°55'0 0.0
2016-May-19 02:33N 60°25' E 026°55'0 0.0
2016-May-19 01:33N 60°25' E 026°55'0 0.0
2016-May-19 00:33N 60°25' E 026°55'0 0.0
2016-May-18 23:33N 60°25' E 026°55'0 0.0
2016-May-18 22:33N 60°25' E 026°55'0 0.0
2016-May-18 21:33N 60°25' E 026°55'0 0.0
2016-May-18 20:33N 60°25' E 026°55'0 0.0
2016-May-18 19:33N 60°25' E 026°55'0 0.0
2016-May-18 18:33N 60°25' E 026°55'0 0.0
2016-May-18 17:33N 60°25' E 026°55'0 0.0
2016-May-18 16:33N 60°25' E 026°55'0 0.0
2016-May-18 15:33N 60°25' E 026°55'0 0.0
2016-May-18 14:33N 60°25' E 026°55'0 0.0
2016-May-18 13:33N 60°25' E 026°55'0 0.0
2016-May-18 12:33N 60°25' E 026°55'0 0.0
2016-May-18 11:33N 60°25' E 026°55'0 0.0
2016-May-18 10:33N 60°25' E 026°55'7 7.0
2016-May-18 09:33N 60°22' E 026°42'1414.2
2016-May-18 08:33N 60°12' E 026°23'1110.9
2016-May-18 07:32N 60°04' E 026°38'1111.5
2016-May-18 06:33N 59°59' E 026°59'1111.3
2016-May-18 05:33N 60°04' E 027°20'1211.6
2016-May-18 04:33N 60°10' E 027°40'1110.9
2016-May-18 03:33N 60°10' E 028°01'1211.5
2016-May-18 02:33N 60°06' E 028°23'1111.3
2016-May-18 01:33N 60°03' E 028°45'1211.7
2016-May-18 00:33N 60°02' E 029°08'1110.8
2016-May-17 23:29N 60°01' E 029°31'1111.6
2016-May-17 22:33N 59°57' E 029°51'1010.4
2016-May-17 21:33N 59°53' E 030°10'2 1.7
2016-May-17 20:33N 59°54' E 030°14'0 0.0
2016-May-17 19:32N 59°54' E 030°14'0 0.0
2016-May-17 18:32N 59°54' E 030°14'0 0.0
2016-May-17 17:29N 59°54' E 030°14'0 0.0
2016-May-17 16:29N 59°54' E 030°14'1 1.5
2016-May-17 15:33N 59°53' E 030°11'1 1.1
2016-May-17 14:31N 59°52' E 030°12'0 0.0
2016-May-17 13:31N 59°52' E 030°12'0 0.0
2016-May-17 12:31N 59°52' E 030°12'0 0.0
2016-May-17 11:31N 59°52' E 030°12'0 0.0
2016-May-17 10:31N 59°52' E 030°12'0 0.0
2016-May-17 09:28N 59°52' E 030°12'0 0.0
2016-May-17 08:31N 59°52' E 030°12'0 0.0
2016-May-17 07:31N 59°52' E 030°12'0 0.0
2016-May-17 06:31N 59°52' E 030°12'0 0.0
2016-May-17 05:28N 59°52' E 030°12'0 0.0
2016-May-17 04:31N 59°52' E 030°12'0 0.0
2016-May-17 03:31N 59°52' E 030°12'0 0.3
2016-May-17 02:33N 59°53' E 030°12'8 7.8
2016-May-17 01:33N 59°56' E 029°58'1212.0
2016-May-17 00:33N 60°01' E 029°36'29 3.2
2016-May-16 15:22N 60°02' E 028°37'911.0
2016-May-16 14:33N 60°05' E 028°20'1111.4
2016-May-16 13:33N 60°09' E 027°59'1110.8
2016-May-16 12:33N 60°08' E 027°37'1311.9
2016-May-16 11:29N 60°02' E 027°15'1011.2
2016-May-16 10:33N 59°59' E 026°55'1211.7
2016-May-16 09:33N 59°59' E 026°32'6311.9
2016-May-16 04:16N 59°44' E 024°30'911.9
2016-May-16 03:32N 59°42' E 024°13'1211.8
2016-May-16 02:33N 59°38' E 023°51'1212.0
2016-May-16 01:32N 59°34' E 023°28'1312.3
2016-May-16 00:28N 59°30' E 023°04'  

Dump ship's entire track history